createdAt,value
2022-12-16T00:01:11.436Z,13.55
2022-12-16T00:04:53.423Z,13.13
2022-12-16T00:08:38.129Z,14.68
2022-12-16T00:12:19.918Z,14.95
2022-12-16T00:16:09.187Z,13.50
2022-12-16T00:19:50.962Z,14.90
2022-12-16T00:23:35.377Z,17.15
2022-12-16T00:27:17.571Z,17.42
2022-12-16T00:30:59.319Z,18.27
2022-12-16T00:34:41.088Z,17.73
2022-12-16T00:38:25.541Z,15.32
2022-12-16T00:42:07.281Z,16.58
2022-12-16T00:45:50.356Z,15.45
2022-12-16T00:49:33.606Z,14.82
2022-12-16T00:53:15.384Z,13.50
2022-12-16T00:56:57.118Z,13.55
2022-12-16T01:00:38.872Z,10.93
2022-12-16T01:04:20.681Z,12.43
2022-12-16T01:08:02.471Z,11.15
2022-12-16T01:11:44.284Z,10.65
2022-12-16T01:15:26.020Z,9.98
2022-12-16T01:19:07.769Z,11.10
2022-12-16T01:22:49.502Z,10.50
2022-12-16T01:26:31.819Z,10.10
2022-12-16T01:30:13.877Z,9.60
2022-12-16T01:33:55.624Z,9.80
2022-12-16T01:37:37.367Z,10.38
2022-12-16T01:41:19.262Z,8.90
2022-12-16T01:45:28.674Z,8.35
2022-12-16T01:49:19.688Z,9.25
2022-12-16T01:53:04.642Z,9.18
2022-12-16T01:56:51.658Z,8.20
2022-12-16T02:00:34.710Z,9.98
2022-12-16T02:04:16.565Z,8.55
2022-12-16T02:08:10.232Z,9.38
2022-12-16T02:12:11.413Z,9.18
2022-12-16T02:16:07.649Z,8.88
2022-12-16T02:20:19.047Z,9.73
2022-12-16T02:24:20.676Z,8.68
2022-12-16T02:28:31.132Z,8.35
2022-12-16T02:32:37.322Z,7.40
2022-12-16T02:36:25.403Z,8.50
2022-12-16T02:40:17.661Z,8.25
2022-12-16T02:44:06.694Z,7.32
2022-12-16T02:47:48.762Z,7.90
2022-12-16T02:51:30.473Z,8.57
2022-12-16T02:55:12.535Z,7.97
2022-12-16T02:59:19.205Z,8.18
2022-12-16T03:03:30.866Z,9.35
2022-12-16T03:07:15.625Z,7.85
2022-12-16T03:11:01.066Z,8.50
2022-12-16T03:14:46.769Z,8.07
2022-12-16T03:18:29.026Z,8.75
2022-12-16T03:22:20.294Z,8.75
2022-12-16T03:26:09.198Z,7.57
2022-12-16T03:29:53.960Z,9.40
2022-12-16T03:33:42.785Z,7.78
2022-12-16T03:37:29.573Z,9.10
2022-12-16T03:41:13.287Z,8.25
2022-12-16T03:44:55.094Z,8.13
2022-12-16T03:48:37.058Z,7.88
2022-12-16T03:52:18.897Z,9.23
2022-12-16T03:56:00.638Z,8.73
2022-12-16T03:59:42.711Z,9.40
2022-12-16T04:03:24.496Z,9.23
2022-12-16T04:07:21.315Z,8.75
2022-12-16T04:11:21.532Z,8.27
2022-12-16T04:15:22.678Z,7.55
2022-12-16T04:19:23.695Z,7.75
2022-12-16T04:23:24.200Z,8.23
2022-12-16T04:27:24.645Z,8.57
2022-12-16T04:31:06.702Z,7.82
2022-12-16T04:34:48.533Z,7.95
2022-12-16T04:38:49.519Z,8.82
2022-12-16T04:42:50.956Z,7.60
2022-12-16T04:46:51.503Z,6.95
2022-12-16T04:50:51.819Z,8.30
2022-12-16T04:54:52.279Z,7.97
2022-12-16T04:58:52.761Z,7.13
2022-12-16T05:02:53.463Z,6.90
2022-12-16T05:06:53.680Z,7.00
2022-12-16T05:10:54.251Z,7.88
2022-12-16T05:14:55.445Z,8.60
2022-12-16T05:18:56.082Z,6.75
2022-12-16T05:22:56.588Z,8.95
2022-12-16T05:26:56.917Z,8.23
2022-12-16T05:30:57.495Z,7.95
2022-12-16T05:34:57.835Z,7.88
2022-12-16T05:38:58.389Z,7.47
2022-12-16T05:42:58.863Z,8.10
2022-12-16T05:46:59.515Z,6.95
2022-12-16T05:50:59.940Z,7.68
2022-12-16T05:55:00.288Z,7.88
2022-12-16T05:59:00.662Z,9.00
2022-12-16T06:03:01.469Z,9.00
2022-12-16T06:07:01.740Z,8.82
2022-12-16T06:11:02.339Z,8.68
2022-12-16T06:15:02.952Z,7.80
2022-12-16T06:19:03.430Z,9.15
2022-12-16T06:23:10.274Z,9.25
2022-12-16T06:27:10.778Z,8.65
2022-12-16T06:31:11.252Z,7.85
2022-12-16T06:35:11.487Z,8.52
2022-12-16T06:39:11.943Z,7.88
2022-12-16T06:43:12.409Z,8.45
2022-12-16T06:47:13.016Z,8.55
2022-12-16T06:51:13.463Z,8.57
2022-12-16T06:55:14.012Z,9.20
2022-12-16T06:59:14.291Z,8.63
2022-12-16T07:03:14.747Z,7.82
2022-12-16T07:07:15.011Z,9.73
2022-12-16T07:11:16.944Z,8.75
2022-12-16T07:15:17.868Z,8.63
2022-12-16T07:19:18.379Z,9.15
2022-12-16T07:23:20.051Z,8.98
2022-12-16T07:27:20.731Z,9.70
2022-12-16T07:31:21.191Z,11.05
2022-12-16T07:35:21.517Z,9.02
2022-12-16T07:39:22.159Z,10.00
2022-12-16T07:43:22.667Z,9.40
2022-12-16T07:47:23.227Z,9.73
2022-12-16T07:51:23.798Z,9.85
2022-12-16T07:55:24.806Z,9.38
2022-12-16T07:59:25.118Z,10.13
2022-12-16T08:03:25.633Z,10.38
2022-12-16T08:07:26.053Z,10.20
2022-12-16T08:11:26.712Z,10.15
2022-12-16T08:15:27.370Z,10.98
2022-12-16T08:19:27.702Z,10.85
2022-12-16T08:23:27.944Z,9.43
2022-12-16T08:27:28.386Z,8.95
2022-12-16T08:31:28.976Z,9.10
2022-12-16T08:35:29.246Z,11.10
2022-12-16T08:39:29.868Z,10.60
2022-12-16T08:43:30.562Z,9.80
2022-12-16T08:47:31.405Z,9.77
2022-12-16T08:51:31.894Z,10.35
2022-12-16T08:55:32.475Z,11.10
2022-12-16T08:59:32.914Z,10.60
2022-12-16T09:03:33.833Z,10.60
2022-12-16T09:07:34.370Z,9.43
2022-12-16T09:11:34.869Z,11.32
2022-12-16T09:15:35.429Z,13.50
2022-12-16T09:19:35.902Z,13.23
2022-12-16T09:23:36.483Z,13.40
2022-12-16T09:27:37.331Z,13.55
2022-12-16T09:31:37.803Z,12.77
2022-12-16T09:35:37.964Z,13.20
2022-12-16T09:39:38.388Z,12.32
2022-12-16T09:44:04.716Z,12.32
2022-12-16T09:48:19.645Z,13.20
2022-12-16T09:52:21.797Z,11.88
2022-12-16T09:56:29.337Z,12.88
2022-12-16T10:00:48.573Z,12.95
2022-12-16T10:04:49.204Z,13.70
2022-12-16T10:09:18.127Z,13.60
2022-12-16T10:13:28.137Z,13.93
2022-12-16T10:17:43.372Z,15.32
2022-12-16T10:21:50.560Z,17.73
2022-12-16T10:26:19.140Z,15.35
2022-12-16T10:30:21.610Z,16.08
2022-12-16T10:34:28.138Z,15.55
2022-12-16T10:38:52.430Z,16.38
2022-12-16T10:43:01.812Z,16.23
2022-12-16T10:47:02.379Z,15.50
2022-12-16T10:51:03.018Z,16.48
2022-12-16T10:55:13.590Z,15.55
2022-12-16T10:59:17.252Z,15.05
2022-12-16T11:03:37.560Z,15.93
2022-12-16T11:07:56.732Z,15.35
2022-12-16T11:11:57.238Z,16.17
2022-12-16T11:15:57.892Z,17.02
2022-12-16T11:19:58.114Z,16.98
2022-12-16T11:23:58.454Z,18.20
2022-12-16T11:27:58.909Z,17.77
2022-12-16T11:32:01.237Z,19.00
2022-12-16T11:36:28.242Z,16.98
2022-12-16T11:40:33.696Z,16.27
2022-12-16T11:44:53.857Z,20.10
2022-12-16T11:49:13.825Z,19.83
2022-12-16T11:53:17.868Z,20.67
2022-12-16T11:57:20.880Z,19.15
2022-12-16T12:01:47.830Z,21.35
2022-12-16T12:06:24.001Z,18.15
2022-12-16T12:10:44.963Z,20.10
2022-12-16T12:14:53.554Z,19.38
2022-12-16T12:19:07.010Z,18.48
2022-12-16T12:23:07.580Z,18.08
2022-12-16T12:27:33.415Z,20.52
2022-12-16T12:31:54.462Z,21.55
2022-12-16T12:36:17.646Z,20.83
2022-12-16T12:40:40.701Z,20.48
2022-12-16T12:44:59.026Z,20.95
2022-12-16T12:49:09.513Z,21.15
2022-12-16T12:53:19.389Z,19.45
2022-12-16T12:57:21.827Z,20.83
2022-12-16T13:01:24.699Z,20.92
2022-12-16T13:05:40.619Z,22.02
2022-12-16T13:09:46.869Z,23.27
2022-12-16T13:13:49.873Z,22.88
2022-12-16T13:18:22.288Z,21.55
2022-12-16T13:22:24.475Z,23.05
2022-12-16T13:26:24.927Z,21.85
2022-12-16T13:30:30.866Z,21.85
2022-12-16T13:34:33.966Z,20.92
2022-12-16T13:38:36.921Z,20.85
2022-12-16T13:42:53.677Z,18.85
2022-12-16T13:46:59.787Z,19.90
2022-12-16T13:51:01.641Z,18.83
2022-12-16T13:55:18.811Z,17.85
2022-12-16T13:59:29.675Z,18.02
2022-12-16T14:03:38.219Z,18.55
2022-12-16T14:07:41.878Z,18.08
2022-12-16T14:12:12.082Z,19.05
2022-12-16T14:16:51.328Z,18.27
2022-12-16T14:21:00.548Z,18.58
2022-12-16T14:25:01.626Z,18.70
2022-12-16T14:29:05.736Z,18.17
2022-12-16T14:33:06.333Z,18.83
2022-12-16T14:37:07.286Z,19.75
2022-12-16T14:41:10.371Z,18.08
2022-12-16T14:45:11.331Z,17.95
2022-12-16T14:49:13.338Z,20.48
2022-12-16T14:53:36.052Z,21.45
2022-12-16T14:57:44.230Z,21.20
2022-12-16T15:01:45.620Z,23.52
2022-12-16T15:05:51.458Z,24.63
2022-12-16T15:09:56.538Z,22.83
2022-12-16T15:14:03.394Z,23.98
2022-12-16T15:18:12.770Z,21.10
2022-12-16T15:22:13.137Z,22.25
2022-12-16T15:26:16.355Z,20.40
2022-12-16T15:30:16.939Z,22.05
2022-12-16T15:34:41.716Z,23.45
2022-12-16T15:38:49.300Z,21.13
2022-12-16T15:42:51.989Z,21.95
2022-12-16T15:46:53.077Z,25.77
2022-12-16T15:51:11.723Z,22.52
2022-12-16T15:55:13.453Z,22.92
2022-12-16T15:59:45.827Z,23.60
2022-12-16T16:03:50.420Z,22.85
2022-12-16T16:07:50.870Z,20.90
2022-12-16T16:11:51.330Z,22.73
2022-12-16T16:15:51.834Z,22.55
2022-12-16T16:19:52.283Z,21.17
2022-12-16T16:23:52.974Z,23.73
2022-12-16T16:27:53.515Z,23.35
2022-12-16T16:31:56.228Z,21.42
2022-12-16T16:35:59.885Z,22.88
2022-12-16T16:40:01.861Z,22.40
2022-12-16T16:44:02.985Z,23.00
2022-12-16T16:48:03.666Z,22.13
2022-12-16T16:52:04.001Z,21.90
2022-12-16T16:56:04.575Z,20.42
2022-12-16T17:00:05.486Z,22.13
2022-12-16T17:04:06.114Z,21.20
2022-12-16T17:08:06.431Z,19.35
2022-12-16T17:12:06.854Z,18.52
2022-12-16T17:16:07.441Z,19.52
2022-12-16T17:20:07.734Z,19.90
2022-12-16T17:24:08.403Z,21.08
2022-12-16T17:28:08.918Z,21.77
2022-12-16T17:32:09.386Z,20.40
2022-12-16T17:36:11.076Z,29.02
2022-12-16T17:40:11.441Z,30.75
2022-12-16T17:44:12.506Z,37.15
2022-12-16T17:48:12.930Z,34.00
2022-12-16T17:52:13.905Z,31.95
2022-12-16T17:56:25.068Z,29.55
2022-12-16T18:00:26.285Z,25.15
2022-12-16T18:04:27.151Z,25.20
2022-12-16T18:08:27.521Z,22.17
2022-12-16T18:12:27.865Z,23.63
2022-12-16T18:16:28.384Z,19.77
2022-12-16T18:20:28.797Z,20.42
2022-12-16T18:24:29.260Z,20.08
2022-12-16T18:28:29.832Z,20.20
2022-12-16T18:32:34.871Z,20.15
2022-12-16T18:36:35.792Z,20.58
2022-12-16T18:40:36.313Z,20.33
2022-12-16T18:44:36.857Z,19.23
2022-12-16T18:48:37.463Z,18.98
2022-12-16T18:52:38.489Z,19.02
2022-12-16T18:56:39.048Z,19.17
2022-12-16T19:00:39.513Z,18.17
2022-12-16T19:04:39.807Z,19.20
2022-12-16T19:08:40.269Z,16.75
2022-12-16T19:12:40.858Z,18.42
2022-12-16T19:16:41.387Z,18.83
2022-12-16T19:20:42.044Z,16.98
2022-12-16T19:24:43.135Z,18.55
2022-12-16T19:28:43.849Z,19.45
2022-12-16T19:32:44.354Z,18.23
2022-12-16T19:36:46.896Z,16.30
2022-12-16T19:40:47.559Z,16.17
2022-12-16T19:44:48.191Z,15.75
2022-12-16T19:48:48.874Z,16.73
2022-12-16T19:52:49.315Z,17.55
2022-12-16T19:56:49.966Z,16.15
2022-12-16T20:00:50.580Z,17.83
2022-12-16T20:04:52.100Z,19.27
2022-12-16T20:08:52.460Z,18.58
2022-12-16T20:17:15.638Z,18.88
2022-12-16T20:21:20.838Z,20.75
2022-12-16T20:25:21.296Z,19.83
2022-12-16T20:29:21.933Z,22.15
2022-12-16T20:33:22.417Z,21.20
2022-12-16T20:37:23.259Z,21.40
2022-12-16T20:41:24.304Z,20.88
2022-12-16T20:45:25.290Z,21.80
2022-12-16T20:49:25.934Z,18.35
2022-12-16T20:53:26.384Z,18.40
2022-12-16T20:57:26.926Z,20.17
2022-12-16T21:01:27.751Z,18.38
2022-12-16T21:05:27.961Z,18.45
2022-12-16T21:09:28.797Z,18.40
2022-12-16T21:13:32.384Z,17.35
2022-12-16T21:17:32.844Z,15.80
2022-12-16T21:21:33.314Z,15.43
2022-12-16T21:25:34.151Z,16.17
2022-12-16T21:29:34.768Z,14.02
2022-12-16T21:33:36.722Z,13.00
2022-12-16T21:37:36.885Z,12.93
2022-12-16T21:41:37.394Z,14.20
2022-12-16T21:45:40.901Z,14.73
2022-12-16T21:49:41.329Z,14.63
2022-12-16T21:53:42.105Z,15.93
2022-12-16T21:57:42.988Z,15.23
2022-12-16T22:01:43.448Z,15.13
2022-12-16T22:05:43.914Z,14.50
2022-12-16T22:09:44.525Z,14.27
2022-12-16T22:13:44.988Z,14.45
2022-12-16T22:17:45.544Z,15.40
2022-12-16T22:21:46.317Z,17.90
2022-12-16T22:25:46.773Z,19.48
2022-12-16T22:29:47.323Z,17.40
2022-12-16T22:33:48.074Z,15.93
2022-12-16T22:37:49.302Z,15.32
2022-12-16T22:41:49.703Z,15.68
2022-12-16T22:45:50.154Z,19.08
2022-12-16T22:49:50.388Z,20.27
2022-12-16T22:53:50.928Z,20.60
2022-12-16T22:57:53.371Z,21.17
2022-12-16T23:01:54.165Z,17.25
2022-12-16T23:05:57.397Z,17.30
2022-12-16T23:09:57.991Z,17.67
2022-12-16T23:13:58.568Z,18.05
2022-12-16T23:17:58.992Z,17.25
2022-12-16T23:21:59.566Z,17.88
2022-12-16T23:26:00.437Z,18.05
2022-12-16T23:30:00.915Z,18.00
2022-12-16T23:32:29.871Z,17.80
2022-12-16T23:34:01.620Z,18.05
2022-12-16T23:38:02.093Z,17.70
2022-12-16T23:42:02.638Z,18.95
2022-12-16T23:46:02.992Z,17.15
2022-12-16T23:50:03.272Z,17.83
2022-12-16T23:54:08.170Z,17.15
2022-12-16T23:58:18.985Z,18.73
